sensor_id;sensor_type;location;lat;lon;timestamp;P1;durP1;ratioP1;P2;durP2;ratioP2
62332;SDS011;48624;49.812;8.562;2022-09-01T00:01:13;6.30;;;3.03;;
62332;SDS011;48624;49.812;8.562;2022-09-01T00:03:45;3.92;;;3.53;;
62332;SDS011;48624;49.812;8.562;2022-09-01T00:06:17;4.78;;;3.90;;
62332;SDS011;48624;49.812;8.562;2022-09-01T00:08:54;6.53;;;4.05;;
62332;SDS011;48624;49.812;8.562;2022-09-01T00:11:22;3.90;;;3.58;;
62332;SDS011;48624;49.812;8.562;2022-09-01T00:13:52;5.03;;;3.65;;
62332;SDS011;48624;49.812;8.562;2022-09-01T00:16:19;5.35;;;4.03;;
62332;SDS011;48624;49.812;8.562;2022-09-01T00:18:47;4.50;;;3.35;;
62332;SDS011;48624;49.812;8.562;2022-09-01T00:21:18;4.20;;;3.60;;
62332;SDS011;48624;49.812;8.562;2022-09-01T00:23:51;6.95;;;3.45;;
62332;SDS011;48624;49.812;8.562;2022-09-01T00:26:17;3.88;;;3.35;;
62332;SDS011;48624;49.812;8.562;2022-09-01T00:28:42;4.45;;;4.00;;
62332;SDS011;48624;49.812;8.562;2022-09-01T00:31:08;6.15;;;3.60;;
62332;SDS011;48624;49.812;8.562;2022-09-01T00:33:35;4.25;;;3.83;;
62332;SDS011;48624;49.812;8.562;2022-09-01T00:36:01;3.95;;;3.55;;
62332;SDS011;48624;49.812;8.562;2022-09-01T00:38:26;4.35;;;3.95;;
62332;SDS011;48624;49.812;8.562;2022-09-01T00:40:52;3.55;;;3.25;;
62332;SDS011;48624;49.812;8.562;2022-09-01T00:43:38;4.68;;;3.75;;
62332;SDS011;48624;49.812;8.562;2022-09-01T00:46:07;3.67;;;3.25;;
62332;SDS011;48624;49.812;8.562;2022-09-01T00:48:35;4.43;;;4.03;;
62332;SDS011;48624;49.812;8.562;2022-09-01T00:51:02;5.82;;;3.90;;
62332;SDS011;48624;49.812;8.562;2022-09-01T00:53:28;4.22;;;3.47;;
62332;SDS011;48624;49.812;8.562;2022-09-01T00:55:53;5.13;;;3.42;;
62332;SDS011;48624;49.812;8.562;2022-09-01T00:58:19;6.40;;;3.35;;
62332;SDS011;48624;49.812;8.562;2022-09-01T01:00:44;5.13;;;3.72;;
62332;SDS011;48624;49.812;8.562;2022-09-01T01:03:14;7.35;;;4.45;;
62332;SDS011;48624;49.812;8.562;2022-09-01T01:05:41;4.25;;;3.80;;
62332;SDS011;48624;49.812;8.562;2022-09-01T01:08:18;4.45;;;4.03;;
62332;SDS011;48624;49.812;8.562;2022-09-01T01:10:45;4.03;;;3.63;;
62332;SDS011;48624;49.812;8.562;2022-09-01T01:13:12;3.90;;;3.53;;
62332;SDS011;48624;49.812;8.562;2022-09-01T01:15:39;3.65;;;3.35;;
62332;SDS011;48624;49.812;8.562;2022-09-01T01:18:08;4.28;;;3.75;;
62332;SDS011;48624;49.812;8.562;2022-09-01T01:20:34;3.33;;;3.03;;
62332;SDS011;48624;49.812;8.562;2022-09-01T01:23:29;4.20;;;3.80;;
62332;SDS011;48624;49.812;8.562;2022-09-01T01:26:04;3.42;;;3.13;;
62332;SDS011;48624;49.812;8.562;2022-09-01T01:28:32;3.30;;;3.00;;
62332;SDS011;48624;49.812;8.562;2022-09-01T01:31:05;3.58;;;3.28;;
62332;SDS011;48624;49.812;8.562;2022-09-01T01:33:42;3.50;;;3.10;;
62332;SDS011;48624;49.812;8.562;2022-09-01T01:36:17;5.10;;;2.83;;
62332;SDS011;48624;49.812;8.562;2022-09-01T01:38:46;4.18;;;3.10;;
62332;SDS011;48624;49.812;8.562;2022-09-01T01:41:13;4.78;;;3.10;;
62332;SDS011;48624;49.812;8.562;2022-09-01T01:43:39;3.53;;;3.22;;
62332;SDS011;48624;49.812;8.562;2022-09-01T01:46:06;3.60;;;3.30;;
62332;SDS011;48624;49.812;8.562;2022-09-01T01:48:34;6.15;;;3.05;;
62332;SDS011;48624;49.812;8.562;2022-09-01T01:51:01;4.20;;;3.08;;
62332;SDS011;48624;49.812;8.562;2022-09-01T01:53:28;3.42;;;3.13;;
62332;SDS011;48624;49.812;8.562;2022-09-01T01:55:54;3.75;;;3.38;;
62332;SDS011;48624;49.812;8.562;2022-09-01T01:58:21;3.53;;;3.22;;
62332;SDS011;48624;49.812;8.562;2022-09-01T02:00:48;4.45;;;3.13;;
62332;SDS011;48624;49.812;8.562;2022-09-01T02:03:16;3.30;;;3.00;;
62332;SDS011;48624;49.812;8.562;2022-09-01T02:05:44;3.67;;;2.92;;
62332;SDS011;48624;49.812;8.562;2022-09-01T02:08:12;3.42;;;3.13;;
62332;SDS011;48624;49.812;8.562;2022-09-01T02:10:44;3.13;;;2.80;;
62332;SDS011;48624;49.812;8.562;2022-09-01T02:13:12;3.58;;;3.28;;
62332;SDS011;48624;49.812;8.562;2022-09-01T02:15:43;3.25;;;2.90;;
62332;SDS011;48624;49.812;8.562;2022-09-01T02:18:12;4.47;;;3.33;;
62332;SDS011;48624;49.812;8.562;2022-09-01T02:20:43;4.85;;;3.33;;
62332;SDS011;48624;49.812;8.562;2022-09-01T02:23:11;5.22;;;3.38;;
62332;SDS011;48624;49.812;8.562;2022-09-01T02:25:40;3.50;;;3.20;;
62332;SDS011;48624;49.812;8.562;2022-09-01T02:28:09;6.30;;;3.70;;
62332;SDS011;48624;49.812;8.562;2022-09-01T02:30:40;3.28;;;3.00;;
62332;SDS011;48624;49.812;8.562;2022-09-01T02:33:06;3.88;;;3.42;;
62332;SDS011;48624;49.812;8.562;2022-09-01T02:35:33;4.63;;;3.55;;
62332;SDS011;48624;49.812;8.562;2022-09-01T02:38:04;3.50;;;3.20;;
62332;SDS011;48624;49.812;8.562;2022-09-01T02:40:31;5.30;;;3.95;;
62332;SDS011;48624;49.812;8.562;2022-09-01T02:42:57;4.78;;;3.20;;
62332;SDS011;48624;49.812;8.562;2022-09-01T02:45:27;4.25;;;3.85;;
62332;SDS011;48624;49.812;8.562;2022-09-01T02:47:53;3.53;;;3.22;;
62332;SDS011;48624;49.812;8.562;2022-09-01T02:50:21;7.47;;;3.17;;
62332;SDS011;48624;49.812;8.562;2022-09-01T02:52:46;4.63;;;3.55;;
62332;SDS011;48624;49.812;8.562;2022-09-01T02:55:15;3.88;;;3.58;;
62332;SDS011;48624;49.812;8.562;2022-09-01T02:57:45;4.47;;;3.72;;
62332;SDS011;48624;49.812;8.562;2022-09-01T03:00:15;3.53;;;3.22;;
62332;SDS011;48624;49.812;8.562;2022-09-01T03:02:54;3.75;;;3.45;;
62332;SDS011;48624;49.812;8.562;2022-09-01T03:05:25;4.68;;;4.28;;
62332;SDS011;48624;49.812;8.562;2022-09-01T03:07:54;4.38;;;3.97;;
62332;SDS011;48624;49.812;8.562;2022-09-01T03:10:22;4.20;;;3.80;;
62332;SDS011;48624;49.812;8.562;2022-09-01T03:12:53;5.57;;;4.15;;
62332;SDS011;48624;49.812;8.562;2022-09-01T03:15:19;3.63;;;3.33;;
62332;SDS011;48624;49.812;8.562;2022-09-01T03:17:45;4.50;;;4.10;;
62332;SDS011;48624;49.812;8.562;2022-09-01T03:20:12;4.97;;;3.60;;
62332;SDS011;48624;49.812;8.562;2022-09-01T03:22:37;5.07;;;3.72;;
62332;SDS011;48624;49.812;8.562;2022-09-01T03:25:03;5.65;;;3.50;;
62332;SDS011;48624;49.812;8.562;2022-09-01T03:27:28;6.55;;;3.53;;
62332;SDS011;48624;49.812;8.562;2022-09-01T03:29:53;5.07;;;3.60;;
62332;SDS011;48624;49.812;8.562;2022-09-01T03:32:19;4.28;;;3.85;;
62332;SDS011;48624;49.812;8.562;2022-09-01T03:34:44;4.95;;;3.30;;
62332;SDS011;48624;49.812;8.562;2022-09-01T03:37:09;3.65;;;3.35;;
62332;SDS011;48624;49.812;8.562;2022-09-01T03:39:36;4.78;;;3.53;;
62332;SDS011;48624;49.812;8.562;2022-09-01T03:42:02;5.20;;;3.28;;
62332;SDS011;48624;49.812;8.562;2022-09-01T03:44:27;4.53;;;4.13;;
62332;SDS011;48624;49.812;8.562;2022-09-01T03:46:53;4.05;;;3.15;;
62332;SDS011;48624;49.812;8.562;2022-09-01T03:49:18;4.68;;;3.53;;
62332;SDS011;48624;49.812;8.562;2022-09-01T03:51:49;4.75;;;3.15;;
62332;SDS011;48624;49.812;8.562;2022-09-01T03:54:17;4.63;;;3.50;;
62332;SDS011;48624;49.812;8.562;2022-09-01T03:56:43;5.07;;;3.95;;
62332;SDS011;48624;49.812;8.562;2022-09-01T03:59:09;5.72;;;3.17;;
62332;SDS011;48624;49.812;8.562;2022-09-01T04:01:41;4.38;;;3.50;;
62332;SDS011;48624;49.812;8.562;2022-09-01T04:04:08;4.32;;;3.33;;
62332;SDS011;48624;49.812;8.562;2022-09-01T04:06:37;4.32;;;3.92;;
62332;SDS011;48624;49.812;8.562;2022-09-01T04:09:04;3.80;;;3.42;;
62332;SDS011;48624;49.812;8.562;2022-09-01T04:11:30;3.63;;;3.33;;
62332;SDS011;48624;49.812;8.562;2022-09-01T04:13:56;4.93;;;3.40;;
62332;SDS011;48624;49.812;8.562;2022-09-01T04:16:27;4.25;;;3.42;;
62332;SDS011;48624;49.812;8.562;2022-09-01T04:19:14;4.68;;;3.33;;
62332;SDS011;48624;49.812;8.562;2022-09-01T04:21:44;3.78;;;3.33;;
62332;SDS011;48624;49.812;8.562;2022-09-01T04:24:11;3.08;;;2.78;;
62332;SDS011;48624;49.812;8.562;2022-09-01T04:26:39;4.45;;;3.08;;
62332;SDS011;48624;49.812;8.562;2022-09-01T04:29:05;4.95;;;3.38;;
62332;SDS011;48624;49.812;8.562;2022-09-01T04:31:33;6.72;;;3.35;;
62332;SDS011;48624;49.812;8.562;2022-09-01T04:34:02;4.28;;;3.92;;
62332;SDS011;48624;49.812;8.562;2022-09-01T04:36:38;4.07;;;3.38;;
62332;SDS011;48624;49.812;8.562;2022-09-01T04:39:06;5.50;;;4.25;;
62332;SDS011;48624;49.812;8.562;2022-09-01T04:41:38;6.15;;;3.95;;
62332;SDS011;48624;49.812;8.562;2022-09-01T04:44:10;5.05;;;3.50;;
62332;SDS011;48624;49.812;8.562;2022-09-01T04:46:39;4.32;;;3.63;;
62332;SDS011;48624;49.812;8.562;2022-09-01T04:49:06;4.60;;;3.85;;
62332;SDS011;48624;49.812;8.562;2022-09-01T04:51:42;3.72;;;3.33;;
62332;SDS011;48624;49.812;8.562;2022-09-01T04:54:10;6.70;;;4.03;;
62332;SDS011;48624;49.812;8.562;2022-09-01T04:56:39;4.95;;;4.55;;
62332;SDS011;48624;49.812;8.562;2022-09-01T04:59:07;6.47;;;3.95;;
62332;SDS011;48624;49.812;8.562;2022-09-01T05:01:34;5.03;;;3.85;;
62332;SDS011;48624;49.812;8.562;2022-09-01T05:04:07;3.78;;;3.47;;
62332;SDS011;48624;49.812;8.562;2022-09-01T05:06:41;3.80;;;3.25;;
62332;SDS011;48624;49.812;8.562;2022-09-01T05:09:09;4.63;;;3.75;;
62332;SDS011;48624;49.812;8.562;2022-09-01T05:11:36;3.97;;;3.45;;
62332;SDS011;48624;49.812;8.562;2022-09-01T05:14:03;3.80;;;3.40;;
62332;SDS011;48624;49.812;8.562;2022-09-01T05:16:29;4.03;;;3.20;;
62332;SDS011;48624;49.812;8.562;2022-09-01T05:18:54;5.00;;;3.10;;
62332;SDS011;48624;49.812;8.562;2022-09-01T05:21:21;3.63;;;3.28;;
62332;SDS011;48624;49.812;8.562;2022-09-01T05:23:50;3.90;;;3.28;;
62332;SDS011;48624;49.812;8.562;2022-09-01T05:26:21;3.97;;;3.00;;
62332;SDS011;48624;49.812;8.562;2022-09-01T05:28:55;3.75;;;3.38;;
62332;SDS011;48624;49.812;8.562;2022-09-01T05:31:24;4.68;;;3.03;;
62332;SDS011;48624;49.812;8.562;2022-09-01T05:33:52;3.47;;;3.05;;
62332;SDS011;48624;49.812;8.562;2022-09-01T05:36:19;2.85;;;2.55;;
62332;SDS011;48624;49.812;8.562;2022-09-01T05:38:47;4.47;;;3.00;;
62332;SDS011;48624;49.812;8.562;2022-09-01T05:41:15;3.42;;;2.92;;
62332;SDS011;48624;49.812;8.562;2022-09-01T05:43:42;3.85;;;3.22;;
62332;SDS011;48624;49.812;8.562;2022-09-01T05:46:13;3.75;;;2.75;;
62332;SDS011;48624;49.812;8.562;2022-09-01T05:48:41;5.65;;;2.53;;
62332;SDS011;48624;49.812;8.562;2022-09-01T05:51:08;4.55;;;3.45;;
62332;SDS011;48624;49.812;8.562;2022-09-01T05:53:34;6.47;;;2.90;;
62332;SDS011;48624;49.812;8.562;2022-09-01T05:56:05;5.32;;;3.05;;
62332;SDS011;48624;49.812;8.562;2022-09-01T05:58:33;2.88;;;2.60;;
62332;SDS011;48624;49.812;8.562;2022-09-01T06:00:59;4.70;;;3.17;;
62332;SDS011;48624;49.812;8.562;2022-09-01T06:03:26;4.47;;;3.10;;
62332;SDS011;48624;49.812;8.562;2022-09-01T06:05:53;3.58;;;3.00;;
62332;SDS011;48624;49.812;8.562;2022-09-01T06:08:20;3.33;;;2.92;;
62332;SDS011;48624;49.812;8.562;2022-09-01T06:10:48;4.60;;;2.80;;
62332;SDS011;48624;49.812;8.562;2022-09-01T06:13:15;4.68;;;3.17;;
62332;SDS011;48624;49.812;8.562;2022-09-01T06:15:45;13.60;;;3.70;;
62332;SDS011;48624;49.812;8.562;2022-09-01T06:18:17;3.50;;;3.20;;
62332;SDS011;48624;49.812;8.562;2022-09-01T06:20:45;2.97;;;2.35;;
62332;SDS011;48624;49.812;8.562;2022-09-01T06:23:12;3.38;;;2.78;;
62332;SDS011;48624;49.812;8.562;2022-09-01T06:25:45;3.60;;;3.30;;
62332;SDS011;48624;49.812;8.562;2022-09-01T06:28:15;2.42;;;2.17;;
62332;SDS011;48624;49.812;8.562;2022-09-01T06:30:45;4.00;;;2.83;;
62332;SDS011;48624;49.812;8.562;2022-09-01T06:33:13;5.93;;;3.10;;
62332;SDS011;48624;49.812;8.562;2022-09-01T06:35:40;4.63;;;3.17;;
62332;SDS011;48624;49.812;8.562;2022-09-01T06:38:09;6.30;;;2.60;;
62332;SDS011;48624;49.812;8.562;2022-09-01T06:40:36;3.40;;;2.40;;
62332;SDS011;48624;49.812;8.562;2022-09-01T06:43:03;3.75;;;2.50;;
62332;SDS011;48624;49.812;8.562;2022-09-01T06:45:32;3.35;;;2.30;;
62332;SDS011;48624;49.812;8.562;2022-09-01T06:47:58;3.70;;;2.15;;
62332;SDS011;48624;49.812;8.562;2022-09-01T06:50:24;3.38;;;2.42;;
62332;SDS011;48624;49.812;8.562;2022-09-01T06:52:52;4.07;;;2.83;;
62332;SDS011;48624;49.812;8.562;2022-09-01T06:55:33;2.72;;;2.47;;
62332;SDS011;48624;49.812;8.562;2022-09-01T06:58:03;5.35;;;2.30;;
62332;SDS011;48624;49.812;8.562;2022-09-01T07:00:30;3.25;;;2.50;;
62332;SDS011;48624;49.812;8.562;2022-09-01T07:02:56;3.38;;;2.40;;
62332;SDS011;48624;49.812;8.562;2022-09-01T07:05:23;3.17;;;2.55;;
62332;SDS011;48624;49.812;8.562;2022-09-01T07:07:53;3.50;;;2.78;;
62332;SDS011;48624;49.812;8.562;2022-09-01T07:10:25;4.25;;;2.40;;
62332;SDS011;48624;49.812;8.562;2022-09-01T07:12:57;2.70;;;2.10;;
62332;SDS011;48624;49.812;8.562;2022-09-01T07:15:27;5.22;;;3.42;;
62332;SDS011;48624;49.812;8.562;2022-09-01T07:17:55;6.88;;;2.92;;
62332;SDS011;48624;49.812;8.562;2022-09-01T07:20:23;5.68;;;2.33;;
62332;SDS011;48624;49.812;8.562;2022-09-01T07:22:51;9.80;;;2.47;;
62332;SDS011;48624;49.812;8.562;2022-09-01T07:25:17;4.13;;;2.10;;
62332;SDS011;48624;49.812;8.562;2022-09-01T07:27:44;4.68;;;2.95;;
62332;SDS011;48624;49.812;8.562;2022-09-01T07:30:13;5.38;;;2.55;;
62332;SDS011;48624;49.812;8.562;2022-09-01T07:32:39;7.03;;;2.97;;
62332;SDS011;48624;49.812;8.562;2022-09-01T07:35:07;3.97;;;2.63;;
62332;SDS011;48624;49.812;8.562;2022-09-01T07:37:33;7.65;;;2.72;;
62332;SDS011;48624;49.812;8.562;2022-09-01T07:40:02;3.40;;;2.42;;
62332;SDS011;48624;49.812;8.562;2022-09-01T07:42:32;3.88;;;2.45;;
62332;SDS011;48624;49.812;8.562;2022-09-01T07:44:58;4.03;;;2.50;;
62332;SDS011;48624;49.812;8.562;2022-09-01T07:47:24;3.47;;;2.50;;
62332;SDS011;48624;49.812;8.562;2022-09-01T07:49:50;4.25;;;2.38;;
62332;SDS011;48624;49.812;8.562;2022-09-01T07:52:16;2.47;;;2.10;;
62332;SDS011;48624;49.812;8.562;2022-09-01T07:54:42;3.08;;;2.03;;
62332;SDS011;48624;49.812;8.562;2022-09-01T07:57:07;3.40;;;2.60;;
62332;SDS011;48624;49.812;8.562;2022-09-01T07:59:33;2.60;;;2.20;;
62332;SDS011;48624;49.812;8.562;2022-09-01T08:01:59;5.30;;;2.35;;
62332;SDS011;48624;49.812;8.562;2022-09-01T08:04:29;3.72;;;2.13;;
62332;SDS011;48624;49.812;8.562;2022-09-01T08:06:55;5.95;;;2.28;;
62332;SDS011;48624;49.812;8.562;2022-09-01T08:09:21;2.03;;;1.80;;
62332;SDS011;48624;49.812;8.562;2022-09-01T08:11:47;2.55;;;2.17;;
62332;SDS011;48624;49.812;8.562;2022-09-01T08:14:12;5.13;;;2.25;;
62332;SDS011;48624;49.812;8.562;2022-09-01T08:16:38;2.60;;;2.30;;
62332;SDS011;48624;49.812;8.562;2022-09-01T08:19:03;2.38;;;2.17;;
62332;SDS011;48624;49.812;8.562;2022-09-01T08:21:28;2.85;;;2.05;;
62332;SDS011;48624;49.812;8.562;2022-09-01T08:23:54;3.22;;;2.80;;
62332;SDS011;48624;49.812;8.562;2022-09-01T08:26:20;3.20;;;2.45;;
62332;SDS011;48624;49.812;8.562;2022-09-01T08:28:50;4.13;;;2.70;;
62332;SDS011;48624;49.812;8.562;2022-09-01T08:31:18;2.63;;;2.28;;
62332;SDS011;48624;49.812;8.562;2022-09-01T08:33:44;3.88;;;2.50;;
62332;SDS011;48624;49.812;8.562;2022-09-01T08:36:12;4.07;;;2.38;;
62332;SDS011;48624;49.812;8.562;2022-09-01T08:38:39;2.95;;;2.72;;
62332;SDS011;48624;49.812;8.562;2022-09-01T08:41:06;4.68;;;2.58;;
62332;SDS011;48624;49.812;8.562;2022-09-01T08:43:44;3.88;;;3.20;;
62332;SDS011;48624;49.812;8.562;2022-09-01T08:46:20;7.38;;;2.53;;
62332;SDS011;48624;49.812;8.562;2022-09-01T08:48:52;4.15;;;2.47;;
62332;SDS011;48624;49.812;8.562;2022-09-01T08:56:57;2.75;;;2.05;;
62332;SDS011;48624;49.812;8.562;2022-09-01T08:59:25;2.58;;;2.33;;
62332;SDS011;48624;49.812;8.562;2022-09-01T09:04:58;4.43;;;2.50;;
62332;SDS011;48624;49.812;8.562;2022-09-01T09:07:40;3.95;;;2.90;;
62332;SDS011;48624;49.812;8.562;2022-09-01T09:10:21;3.08;;;1.90;;
62332;SDS011;48624;49.812;8.562;2022-09-01T09:15:35;4.43;;;2.33;;
62332;SDS011;48624;49.812;8.562;2022-09-01T09:18:24;4.68;;;2.60;;
62332;SDS011;48624;49.812;8.562;2022-09-01T09:20:56;5.18;;;2.50;;
62332;SDS011;48624;49.812;8.562;2022-09-01T09:23:33;4.35;;;2.88;;
62332;SDS011;48624;49.812;8.562;2022-09-01T09:26:02;3.58;;;2.45;;
62332;SDS011;48624;49.812;8.562;2022-09-01T09:28:27;3.60;;;2.72;;
62332;SDS011;48624;49.812;8.562;2022-09-01T09:33:49;3.08;;;2.20;;
62332;SDS011;48624;49.812;8.562;2022-09-01T09:36:22;2.85;;;2.30;;
62332;SDS011;48624;49.812;8.562;2022-09-01T09:39:03;2.65;;;2.13;;
62332;SDS011;48624;49.812;8.562;2022-09-01T09:41:38;5.30;;;2.50;;
62332;SDS011;48624;49.812;8.562;2022-09-01T09:44:14;6.68;;;2.65;;
62332;SDS011;48624;49.812;8.562;2022-09-01T09:46:44;3.83;;;2.45;;
62332;SDS011;48624;49.812;8.562;2022-09-01T09:54:59;3.67;;;2.60;;
62332;SDS011;48624;49.812;8.562;2022-09-01T09:57:30;5.22;;;2.13;;
62332;SDS011;48624;49.812;8.562;2022-09-01T10:00:06;5.43;;;2.50;;
62332;SDS011;48624;49.812;8.562;2022-09-01T10:03:07;4.55;;;2.90;;
62332;SDS011;48624;49.812;8.562;2022-09-01T10:08:13;2.80;;;2.13;;
62332;SDS011;48624;49.812;8.562;2022-09-01T10:11:04;2.80;;;2.40;;
62332;SDS011;48624;49.812;8.562;2022-09-01T10:13:30;2.22;;;1.98;;
62332;SDS011;48624;49.812;8.562;2022-09-01T10:15:57;2.22;;;2.03;;
62332;SDS011;48624;49.812;8.562;2022-09-01T10:18:26;3.22;;;2.00;;
62332;SDS011;48624;49.812;8.562;2022-09-01T10:20:57;4.68;;;1.90;;
62332;SDS011;48624;49.812;8.562;2022-09-01T10:23:25;2.53;;;2.15;;
62332;SDS011;48624;49.812;8.562;2022-09-01T10:25:53;3.25;;;1.67;;
62332;SDS011;48624;49.812;8.562;2022-09-01T10:28:23;2.08;;;1.90;;
62332;SDS011;48624;49.812;8.562;2022-09-01T10:30:52;2.10;;;1.90;;
62332;SDS011;48624;49.812;8.562;2022-09-01T10:33:20;2.35;;;1.83;;
62332;SDS011;48624;49.812;8.562;2022-09-01T10:35:50;2.60;;;1.58;;
62332;SDS011;48624;49.812;8.562;2022-09-01T10:38:23;3.15;;;2.10;;
62332;SDS011;48624;49.812;8.562;2022-09-01T10:41:09;3.05;;;1.95;;
62332;SDS011;48624;49.812;8.562;2022-09-01T10:43:54;2.30;;;1.83;;
62332;SDS011;48624;49.812;8.562;2022-09-01T10:49:12;5.55;;;1.90;;
62332;SDS011;48624;49.812;8.562;2022-09-01T10:51:44;2.72;;;2.00;;
62332;SDS011;48624;49.812;8.562;2022-09-01T10:59:42;1.42;;;1.27;;
62332;SDS011;48624;49.812;8.562;2022-09-01T11:10:06;2.65;;;1.70;;
62332;SDS011;48624;49.812;8.562;2022-09-01T11:18:00;2.38;;;1.55;;
62332;SDS011;48624;49.812;8.562;2022-09-01T11:20:30;4.53;;;1.80;;
62332;SDS011;48624;49.812;8.562;2022-09-01T11:23:02;2.50;;;1.52;;
62332;SDS011;48624;49.812;8.562;2022-09-01T11:39:19;1.58;;;1.45;;
62332;SDS011;48624;49.812;8.562;2022-09-01T11:41:54;2.28;;;1.60;;
62332;SDS011;48624;49.812;8.562;2022-09-01T11:44:39;2.33;;;1.58;;
62332;SDS011;48624;49.812;8.562;2022-09-01T11:47:16;2.90;;;1.80;;
62332;SDS011;48624;49.812;8.562;2022-09-01T11:49:48;3.05;;;1.50;;
62332;SDS011;48624;49.812;8.562;2022-09-01T11:52:17;3.58;;;1.77;;
62332;SDS011;48624;49.812;8.562;2022-09-01T11:54:44;2.00;;;1.38;;
62332;SDS011;48624;49.812;8.562;2022-09-01T11:57:18;1.63;;;1.52;;
62332;SDS011;48624;49.812;8.562;2022-09-01T11:59:46;5.28;;;1.55;;
62332;SDS011;48624;49.812;8.562;2022-09-01T12:02:22;2.38;;;1.88;;
62332;SDS011;48624;49.812;8.562;2022-09-01T12:04:57;3.70;;;1.58;;
62332;SDS011;48624;49.812;8.562;2022-09-01T12:07:25;2.35;;;2.03;;
62332;SDS011;48624;49.812;8.562;2022-09-01T12:09:51;3.30;;;1.70;;
62332;SDS011;48624;49.812;8.562;2022-09-01T12:17:41;3.70;;;1.50;;
62332;SDS011;48624;49.812;8.562;2022-09-01T12:22:45;2.05;;;1.38;;
62332;SDS011;48624;49.812;8.562;2022-09-01T12:25:17;2.13;;;1.58;;
62332;SDS011;48624;49.812;8.562;2022-09-01T12:27:46;4.30;;;1.73;;
62332;SDS011;48624;49.812;8.562;2022-09-01T12:30:12;2.60;;;1.80;;
62332;SDS011;48624;49.812;8.562;2022-09-01T12:32:38;2.00;;;1.80;;
62332;SDS011;48624;49.812;8.562;2022-09-01T12:35:04;3.63;;;1.67;;
62332;SDS011;48624;49.812;8.562;2022-09-01T12:37:42;2.38;;;1.40;;
62332;SDS011;48624;49.812;8.562;2022-09-01T12:40:20;4.28;;;1.98;;
62332;SDS011;48624;49.812;8.562;2022-09-01T12:42:54;3.17;;;1.33;;
62332;SDS011;48624;49.812;8.562;2022-09-01T12:50:54;3.25;;;1.20;;
62332;SDS011;48624;49.812;8.562;2022-09-01T12:53:22;3.08;;;1.50;;
62332;SDS011;48624;49.812;8.562;2022-09-01T12:56:33;3.45;;;1.65;;
62332;SDS011;48624;49.812;8.562;2022-09-01T12:58:45;2.33;;;1.60;;
62332;SDS011;48624;49.812;8.562;2022-09-01T13:01:27;2.30;;;1.60;;
62332;SDS011;48624;49.812;8.562;2022-09-01T13:04:05;2.20;;;1.40;;
62332;SDS011;48624;49.812;8.562;2022-09-01T13:06:34;1.77;;;1.58;;
62332;SDS011;48624;49.812;8.562;2022-09-01T13:08:59;2.78;;;1.58;;
62332;SDS011;48624;49.812;8.562;2022-09-01T13:11:24;2.85;;;1.63;;
62332;SDS011;48624;49.812;8.562;2022-09-01T13:13:49;4.20;;;1.75;;
62332;SDS011;48624;49.812;8.562;2022-09-01T13:16:15;1.80;;;1.70;;
62332;SDS011;48624;49.812;8.562;2022-09-01T13:18:41;2.15;;;1.67;;
62332;SDS011;48624;49.812;8.562;2022-09-01T13:21:07;1.45;;;1.35;;
62332;SDS011;48624;49.812;8.562;2022-09-01T13:23:32;3.58;;;1.30;;
62332;SDS011;48624;49.812;8.562;2022-09-01T13:25:58;1.65;;;1.35;;
62332;SDS011;48624;49.812;8.562;2022-09-01T13:28:23;1.77;;;1.65;;
62332;SDS011;48624;49.812;8.562;2022-09-01T13:30:54;2.40;;;1.45;;
62332;SDS011;48624;49.812;8.562;2022-09-01T13:33:22;1.90;;;1.70;;
62332;SDS011;48624;49.812;8.562;2022-09-01T13:35:49;3.22;;;1.80;;
62332;SDS011;48624;49.812;8.562;2022-09-01T13:38:14;1.58;;;1.35;;
62332;SDS011;48624;49.812;8.562;2022-09-01T13:40:41;1.30;;;1.20;;
62332;SDS011;48624;49.812;8.562;2022-09-01T13:43:07;2.03;;;1.27;;
62332;SDS011;48624;49.812;8.562;2022-09-01T13:45:33;1.80;;;1.63;;
62332;SDS011;48624;49.812;8.562;2022-09-01T13:47:58;3.08;;;1.63;;
62332;SDS011;48624;49.812;8.562;2022-09-01T13:50:24;4.93;;;1.60;;
62332;SDS011;48624;49.812;8.562;2022-09-01T13:52:50;2.67;;;1.50;;
62332;SDS011;48624;49.812;8.562;2022-09-01T13:55:19;7.47;;;1.90;;
62332;SDS011;48624;49.812;8.562;2022-09-01T13:57:46;5.00;;;1.75;;
62332;SDS011;48624;49.812;8.562;2022-09-01T14:00:14;2.38;;;1.80;;
62332;SDS011;48624;49.812;8.562;2022-09-01T14:02:43;1.33;;;1.23;;
62332;SDS011;48624;49.812;8.562;2022-09-01T14:05:18;2.03;;;1.30;;
62332;SDS011;48624;49.812;8.562;2022-09-01T14:07:45;2.63;;;1.30;;
62332;SDS011;48624;49.812;8.562;2022-09-01T14:10:12;3.70;;;1.73;;
62332;SDS011;48624;49.812;8.562;2022-09-01T14:12:38;1.60;;;1.50;;
62332;SDS011;48624;49.812;8.562;2022-09-01T14:15:05;1.52;;;1.35;;
62332;SDS011;48624;49.812;8.562;2022-09-01T14:17:33;3.15;;;1.80;;
62332;SDS011;48624;49.812;8.562;2022-09-01T14:19:59;2.22;;;1.40;;
62332;SDS011;48624;49.812;8.562;2022-09-01T14:22:24;3.75;;;1.65;;
62332;SDS011;48624;49.812;8.562;2022-09-01T14:24:50;3.13;;;1.58;;
62332;SDS011;48624;49.812;8.562;2022-09-01T14:27:16;2.75;;;1.75;;
62332;SDS011;48624;49.812;8.562;2022-09-01T14:29:41;1.67;;;1.35;;
62332;SDS011;48624;49.812;8.562;2022-09-01T14:32:06;2.45;;;1.70;;
62332;SDS011;48624;49.812;8.562;2022-09-01T14:34:32;2.42;;;1.58;;
62332;SDS011;48624;49.812;8.562;2022-09-01T14:36:58;3.22;;;1.67;;
62332;SDS011;48624;49.812;8.562;2022-09-01T14:39:23;2.78;;;1.65;;
62332;SDS011;48624;49.812;8.562;2022-09-01T14:41:49;1.73;;;1.55;;
62332;SDS011;48624;49.812;8.562;2022-09-01T14:44:14;4.10;;;1.55;;
62332;SDS011;48624;49.812;8.562;2022-09-01T14:46:40;2.10;;;1.77;;
62332;SDS011;48624;49.812;8.562;2022-09-01T14:49:05;1.92;;;1.50;;
62332;SDS011;48624;49.812;8.562;2022-09-01T14:51:31;2.35;;;1.42;;
62332;SDS011;48624;49.812;8.562;2022-09-01T14:53:57;2.50;;;1.90;;
62332;SDS011;48624;49.812;8.562;2022-09-01T14:56:23;1.70;;;1.60;;
62332;SDS011;48624;49.812;8.562;2022-09-01T14:58:50;4.90;;;1.45;;
62332;SDS011;48624;49.812;8.562;2022-09-01T15:01:18;1.73;;;1.45;;
62332;SDS011;48624;49.812;8.562;2022-09-01T15:03:45;2.17;;;1.63;;
62332;SDS011;48624;49.812;8.562;2022-09-01T15:06:12;2.70;;;1.40;;
62332;SDS011;48624;49.812;8.562;2022-09-01T15:08:38;4.03;;;1.50;;
62332;SDS011;48624;49.812;8.562;2022-09-01T15:11:08;2.05;;;1.60;;
62332;SDS011;48624;49.812;8.562;2022-09-01T15:13:35;2.33;;;1.45;;
62332;SDS011;48624;49.812;8.562;2022-09-01T15:16:01;1.70;;;1.60;;
62332;SDS011;48624;49.812;8.562;2022-09-01T15:18:28;4.10;;;1.38;;
62332;SDS011;48624;49.812;8.562;2022-09-01T15:20:53;3.10;;;1.40;;
62332;SDS011;48624;49.812;8.562;2022-09-01T15:23:23;3.30;;;1.60;;
62332;SDS011;48624;49.812;8.562;2022-09-01T15:25:51;2.10;;;1.58;;
62332;SDS011;48624;49.812;8.562;2022-09-01T15:28:18;1.73;;;1.60;;
62332;SDS011;48624;49.812;8.562;2022-09-01T15:30:44;2.42;;;1.65;;
62332;SDS011;48624;49.812;8.562;2022-09-01T15:33:10;2.58;;;1.70;;
62332;SDS011;48624;49.812;8.562;2022-09-01T15:35:36;5.05;;;1.90;;
62332;SDS011;48624;49.812;8.562;2022-09-01T15:38:02;2.42;;;1.30;;
62332;SDS011;48624;49.812;8.562;2022-09-01T15:40:29;2.90;;;1.65;;
62332;SDS011;48624;49.812;8.562;2022-09-01T15:42:56;1.20;;;1.10;;
62332;SDS011;48624;49.812;8.562;2022-09-01T15:45:22;2.17;;;1.42;;
62332;SDS011;48624;49.812;8.562;2022-09-01T15:47:49;2.95;;;1.70;;
62332;SDS011;48624;49.812;8.562;2022-09-01T15:50:17;3.83;;;1.55;;
62332;SDS011;48624;49.812;8.562;2022-09-01T15:52:49;1.48;;;1.13;;
62332;SDS011;48624;49.812;8.562;2022-09-01T15:55:23;2.03;;;1.73;;
62332;SDS011;48624;49.812;8.562;2022-09-01T15:57:53;2.45;;;1.50;;
62332;SDS011;48624;49.812;8.562;2022-09-01T16:00:20;5.45;;;1.52;;
62332;SDS011;48624;49.812;8.562;2022-09-01T16:02:58;3.90;;;1.58;;
62332;SDS011;48624;49.812;8.562;2022-09-01T16:05:26;1.42;;;1.15;;
62332;SDS011;48624;49.812;8.562;2022-09-01T16:07:56;1.27;;;1.13;;
62332;SDS011;48624;49.812;8.562;2022-09-01T16:10:25;2.95;;;1.20;;